Time;durP1;ratioP1;P1;durP2;ratioP2;P2;SDS_P1;SDS_P2;PMS_P1;PMS_P2;Temp;Humidity;BMP_temperature;BMP_pressure;BME280_temperature;BME280_humidity;BME280_pressure;Samples;Min_cycle;Max_cycle;Signal;HPM_P1;HPM_P2
2022/05/03 00:02:10;;;;;;;;;;;28.50;88.90;;;;;;5127248;28;19910;-41
2022/05/03 00:04:56;;;;;;;;;;;28.40;89.00;;;;;;5126918;28;19967;-44
2022/05/03 00:07:23;;;;;;;;;;;28.50;89.00;;;;;;5109508;28;20084;-43
2022/05/03 00:10:18;;;;;;;;;;;28.50;88.70;;;;;;5126431;28;20217;-53
2022/05/03 00:12:44;;;;;;;;;;;28.50;88.30;;;;;;5105568;28;19975;-44
2022/05/03 00:15:12;;;;;;;;;;;28.50;88.10;;;;;;5126188;28;19907;-46
2022/05/03 00:17:38;;;;;;;;;;;28.60;87.90;;;;;;5126837;28;19900;-43
2022/05/03 00:20:05;;;;;;;;;;;28.50;88.00;;;;;;5126465;28;19983;-42
2022/05/03 00:22:32;;;;;;;;;;;28.50;87.80;;;;;;5127191;28;19903;-41
2022/05/03 00:24:59;;;;;;;;;;;28.50;87.60;;;;;;5126508;28;19939;-44
2022/05/03 00:27:26;;;;;;;;;;;28.50;87.40;;;;;;5126926;28;19903;-41
2022/05/03 00:29:53;;;;;;;;;;;28.50;87.40;;;;;;5126277;28;19908;-43
2022/05/03 00:32:23;;;;;;;;;;;28.40;87.00;;;;;;5125832;28;19900;-44
2022/05/03 00:34:50;;;;;;;;;;;28.40;87.20;;;;;;5126075;28;19907;-47
2022/05/03 00:37:16;;;;;;;;;;;28.40;87.00;;;;;;5126578;28;20099;-51
2022/05/03 00:39:43;;;;;;;;;;;28.40;86.60;;;;;;5126422;28;19904;-52
2022/05/03 00:42:18;;;;;;;;;;;28.40;86.60;;;;;;5126339;28;19985;-48
2022/05/03 00:44:58;;;;;;;;;;;28.40;86.30;;;;;;5126306;28;19914;-48
2022/05/03 00:47:31;;;;;;;;;;;28.40;86.00;;;;;;5126215;28;20146;-51
2022/05/03 00:50:06;;;;;;;;;;;28.40;85.70;;;;;;5125979;28;19953;-50
2022/05/03 00:52:36;;;;;;;;;;;28.40;85.90;;;;;;5125775;28;20107;-45
2022/05/03 00:55:20;;;;;;;;;;;28.40;85.90;;;;;;5125868;28;19915;-46
2022/05/03 00:58:05;;;;;;;;;;;28.30;85.70;;;;;;5126134;28;19908;-46
2022/05/03 01:00:34;;;;;;;;;;;28.30;85.40;;;;;;5125857;28;19976;-49
2022/05/03 01:03:13;;;;;;;;;;;28.30;85.30;;;;;;5108088;28;19987;-52
2022/05/03 01:05:46;;;;;;;;;;;28.30;85.00;;;;;;5125573;28;19932;-47
2022/05/03 01:08:35;;;;;;;;;;;28.30;85.10;;;;;;5125996;28;20152;-47
2022/05/03 01:11:04;;;;;;;;;;;28.30;85.30;;;;;;5078283;28;19970;-44
2022/05/03 01:13:33;;;;;;;;;;;28.20;85.20;;;;;;5125459;28;19908;-43
2022/05/03 01:16:05;;;;;;;;;;;28.20;84.50;;;;;;5125746;28;19974;-49
2022/05/03 01:18:54;;;;;;;;;;;28.20;84.30;;;;;;5125587;28;20197;-49
2022/05/03 01:21:45;;;;;;;;;;;28.20;84.40;;;;;;5112600;28;19908;-49
2022/05/03 01:24:32;;;;;;;;;;;28.20;84.30;;;;;;5113238;28;20103;-43
2022/05/03 01:27:04;;;;;;;;;;;28.20;84.70;;;;;;5125309;28;19965;-44
2022/05/03 01:29:34;;;;;;;;;;;28.20;84.50;;;;;;5125003;28;20211;-42
2022/05/03 01:32:02;;;;;;;;;;;28.20;84.40;;;;;;5123802;28;20232;-47
2022/05/03 01:34:29;;;;;;;;;;;28.20;84.00;;;;;;5102010;28;19911;-49
2022/05/03 01:36:58;;;;;;;;;;;28.10;84.50;;;;;;5102650;28;19908;-44
2022/05/03 01:39:27;;;;;;;;;;;28.10;84.90;;;;;;5125433;28;20247;-49
2022/05/03 01:42:19;;;;;;;;;;;28.10;85.20;;;;;;5107972;28;19904;-48
2022/05/03 01:45:14;;;;;;;;;;;28.00;85.10;;;;;;5073181;28;20149;-48
2022/05/03 01:47:46;;;;;;;;;;;28.00;84.70;;;;;;5102695;28;19908;-43
2022/05/03 01:50:32;;;;;;;;;;;28.00;85.20;;;;;;5124468;28;19904;-41
2022/05/03 01:53:17;;;;;;;;;;;27.90;84.10;;;;;;5101163;28;19916;-41
2022/05/03 01:55:49;;;;;;;;;;;27.90;84.00;;;;;;5124882;28;19903;-42
2022/05/03 01:58:19;;;;;;;;;;;27.90;83.50;;;;;;5124793;28;20140;-42
2022/05/03 02:00:48;;;;;;;;;;;27.90;83.10;;;;;;5124618;28;19911;-39
2022/05/03 02:03:27;;;;;;;;;;;27.90;83.70;;;;;;5125347;28;19979;-42
2022/05/03 02:05:53;;;;;;;;;;;27.90;83.70;;;;;;5124627;28;19907;-42
2022/05/03 02:08:21;;;;;;;;;;;27.90;84.30;;;;;;5111128;28;19926;-42
2022/05/03 02:10:56;;;;;;;;;;;27.90;84.60;;;;;;5106330;28;19971;-42
2022/05/03 02:16:30;;;;;;;;;;;27.90;84.60;;;;;;5104627;28;19961;-42
2022/05/03 02:19:05;;;;;;;;;;;27.90;84.60;;;;;;5104036;28;19904;-43
2022/05/03 02:21:40;;;;;;;;;;;27.90;84.10;;;;;;5103832;28;20175;-44
2022/05/03 02:24:14;;;;;;;;;;;27.90;84.10;;;;;;5102041;28;19911;-41
2022/05/03 02:27:03;;;;;;;;;;;27.80;83.80;;;;;;5102059;28;20203;-43
2022/05/03 02:29:33;;;;;;;;;;;27.80;83.90;;;;;;5100070;28;19927;-43
2022/05/03 02:32:06;;;;;;;;;;;27.80;83.60;;;;;;5103949;28;19907;-50
2022/05/03 02:34:41;;;;;;;;;;;27.80;83.60;;;;;;5101303;28;19908;-43
2022/05/03 02:37:30;;;;;;;;;;;27.80;83.40;;;;;;5095099;28;19954;-44
2022/05/03 02:39:56;;;;;;;;;;;27.80;83.30;;;;;;5092960;28;20041;-43
2022/05/03 02:42:23;;;;;;;;;;;27.80;83.30;;;;;;5093194;28;19962;-47
2022/05/03 02:44:50;;;;;;;;;;;27.80;82.40;;;;;;5083938;28;20092;-44
2022/05/03 02:47:19;;;;;;;;;;;27.80;82.60;;;;;;5084237;28;19909;-46
2022/05/03 02:49:57;;;;;;;;;;;27.80;82.80;;;;;;5102626;28;19911;-43
2022/05/03 02:52:23;;;;;;;;;;;27.80;82.70;;;;;;5104056;28;19935;-51
2022/05/03 02:54:49;;;;;;;;;;;27.80;82.40;;;;;;5104114;28;19904;-43
2022/05/03 02:57:15;;;;;;;;;;;27.80;82.70;;;;;;5104186;28;19975;-43
2022/05/03 03:02:51;;;;;;;;;;;27.80;83.10;;;;;;5104362;28;20018;-44
2022/05/03 03:05:19;;;;;;;;;;;27.70;83.10;;;;;;5073563;28;19904;-46
2022/05/03 03:07:55;;;;;;;;;;;27.70;83.00;;;;;;5118080;28;19908;-44
2022/05/03 03:10:26;;;;;;;;;;;27.70;83.20;;;;;;5114901;28;19904;-43
2022/05/03 03:12:58;;;;;;;;;;;27.70;83.10;;;;;;5109590;28;19985;-43
2022/05/03 03:15:29;;;;;;;;;;;27.70;82.90;;;;;;5096131;28;19904;-44
2022/05/03 03:18:00;;;;;;;;;;;27.70;83.10;;;;;;5087473;28;19912;-44
2022/05/03 03:20:28;;;;;;;;;;;27.70;82.60;;;;;;5087327;28;19900;-46
2022/05/03 03:22:55;;;;;;;;;;;27.70;82.60;;;;;;5092326;28;19912;-43
2022/05/03 03:25:23;;;;;;;;;;;27.70;82.70;;;;;;5127715;28;19907;-42
2022/05/03 03:27:51;;;;;;;;;;;27.60;82.70;;;;;;5128355;28;19907;-47
2022/05/03 03:30:18;;;;;;;;;;;27.70;83.00;;;;;;5127754;28;20095;-43
2022/05/03 03:32:56;;;;;;;;;;;27.60;82.80;;;;;;5127753;28;20130;-42
2022/05/03 03:35:24;;;;;;;;;;;27.60;83.30;;;;;;5127676;28;19904;-44
2022/05/03 03:37:51;;;;;;;;;;;27.60;82.60;;;;;;5127392;28;19907;-44
2022/05/03 03:40:17;;;;;;;;;;;27.60;82.80;;;;;;5127586;28;19900;-44
2022/05/03 03:42:44;;;;;;;;;;;27.60;82.80;;;;;;5127795;28;19904;-45
2022/05/03 03:45:15;;;;;;;;;;;27.60;82.70;;;;;;5127195;28;19904;-52
2022/05/03 03:47:41;;;;;;;;;;;27.60;82.60;;;;;;5127847;28;19930;-44
2022/05/03 03:50:08;;;;;;;;;;;27.70;82.40;;;;;;5119486;28;20156;-44
2022/05/03 03:52:35;;;;;;;;;;;27.60;82.40;;;;;;5114658;28;20142;-44
2022/05/03 03:55:04;;;;;;;;;;;27.60;82.60;;;;;;5127127;28;19899;-50
2022/05/03 03:57:31;;;;;;;;;;;27.60;82.60;;;;;;5127496;28;19912;-45
2022/05/03 03:59:59;;;;;;;;;;;27.60;82.60;;;;;;5126936;28;19904;-43
2022/05/03 04:02:26;;;;;;;;;;;27.60;82.80;;;;;;5127458;28;19939;-43
2022/05/03 04:04:53;;;;;;;;;;;27.60;82.70;;;;;;5117509;28;20260;-46
2022/05/03 04:07:19;;;;;;;;;;;27.60;82.60;;;;;;5115145;28;20210;-45
2022/05/03 04:09:45;;;;;;;;;;;27.50;83.00;;;;;;5126849;28;20187;-43
2022/05/03 04:12:12;;;;;;;;;;;27.50;82.70;;;;;;5127208;28;19908;-48
2022/05/03 04:14:38;;;;;;;;;;;27.50;83.00;;;;;;5124844;28;19908;-53
2022/05/03 04:17:04;;;;;;;;;;;27.50;82.50;;;;;;5126918;28;19918;-43
2022/05/03 04:19:32;;;;;;;;;;;27.50;82.40;;;;;;5126661;28;19906;-47
2022/05/03 04:22:12;;;;;;;;;;;27.50;82.00;;;;;;5113693;28;19975;-44
2022/05/03 04:24:40;;;;;;;;;;;27.50;81.80;;;;;;5124445;28;20122;-46
2022/05/03 04:27:06;;;;;;;;;;;27.50;81.50;;;;;;5126726;28;19950;-41
2022/05/03 04:29:32;;;;;;;;;;;27.50;81.50;;;;;;5126528;28;20142;-44
2022/05/03 04:31:58;;;;;;;;;;;27.50;81.30;;;;;;5126538;28;19904;-45
2022/05/03 04:34:24;;;;;;;;;;;27.50;81.70;;;;;;5125667;28;20254;-46
2022/05/03 04:36:51;;;;;;;;;;;27.50;81.70;;;;;;5126447;28;19914;-44
2022/05/03 04:39:18;;;;;;;;;;;27.50;81.40;;;;;;5126405;28;19899;-47
2022/05/03 04:41:44;;;;;;;;;;;27.40;81.20;;;;;;5126474;28;19908;-47
2022/05/03 04:44:10;;;;;;;;;;;27.40;81.70;;;;;;5126160;28;19969;-46
2022/05/03 04:46:36;;;;;;;;;;;27.30;81.50;;;;;;5126530;28;20153;-52
2022/05/03 04:49:03;;;;;;;;;;;27.30;81.80;;;;;;5121477;28;19912;-45
2022/05/03 04:51:31;;;;;;;;;;;27.30;81.60;;;;;;5095574;28;19908;-43
2022/05/03 04:53:57;;;;;;;;;;;27.30;81.70;;;;;;5085151;28;19951;-46
2022/05/03 04:56:24;;;;;;;;;;;27.30;81.40;;;;;;5086130;28;19909;-43
2022/05/03 04:58:50;;;;;;;;;;;27.30;80.90;;;;;;5105203;28;19911;-42
2022/05/03 05:01:17;;;;;;;;;;;27.30;80.60;;;;;;5105961;28;19912;-43
2022/05/03 05:03:44;;;;;;;;;;;27.30;80.90;;;;;;5105802;28;19978;-43
2022/05/03 05:06:11;;;;;;;;;;;27.30;80.30;;;;;;5117922;28;19906;-44
2022/05/03 05:08:41;;;;;;;;;;;27.30;81.30;;;;;;5120097;28;19970;-50
2022/05/03 05:11:07;;;;;;;;;;;27.30;81.00;;;;;;5093589;28;19904;-43
2022/05/03 05:13:34;;;;;;;;;;;27.30;80.90;;;;;;5087154;28;19997;-43
2022/05/03 05:16:02;;;;;;;;;;;27.30;81.10;;;;;;5085110;28;19909;-43
2022/05/03 05:18:28;;;;;;;;;;;27.30;80.50;;;;;;5084943;28;19904;-43
2022/05/03 05:20:55;;;;;;;;;;;27.30;80.60;;;;;;5084761;28;19900;-42
2022/05/03 05:23:21;;;;;;;;;;;27.30;80.70;;;;;;5112895;28;19910;-42
2022/05/03 05:25:47;;;;;;;;;;;27.30;80.30;;;;;;5124209;28;19904;-44
2022/05/03 05:28:14;;;;;;;;;;;27.30;80.60;;;;;;5110961;28;19970;-42
2022/05/03 05:30:41;;;;;;;;;;;27.30;80.40;;;;;;5125370;28;20203;-43
2022/05/03 05:33:07;;;;;;;;;;;27.30;80.20;;;;;;5125835;28;19986;-43
2022/05/03 05:35:34;;;;;;;;;;;27.30;80.30;;;;;;5124622;28;20202;-42
2022/05/03 05:38:00;;;;;;;;;;;27.20;80.30;;;;;;5125226;28;19952;-42
2022/05/03 05:40:26;;;;;;;;;;;27.20;80.50;;;;;;5125449;28;20214;-43
2022/05/03 05:42:52;;;;;;;;;;;27.20;80.50;;;;;;5125676;28;19907;-43
2022/05/03 05:45:18;;;;;;;;;;;27.20;80.40;;;;;;5125110;28;19899;-43
2022/05/03 05:47:45;;;;;;;;;;;27.20;80.40;;;;;;5125504;28;19931;-42
2022/05/03 05:50:11;;;;;;;;;;;27.20;80.60;;;;;;5125138;28;19899;-42
2022/05/03 05:55:25;;;;;;;;;;;27.20;81.00;;;;;;5083680;28;20400;-42
2022/05/03 05:57:51;;;;;;;;;;;27.10;80.50;;;;;;5104065;28;20100;-45
2022/05/03 06:00:18;;;;;;;;;;;27.10;80.50;;;;;;5104615;28;20192;-44
2022/05/03 06:02:44;;;;;;;;;;;27.20;80.40;;;;;;5104879;28;19904;-46
2022/05/03 06:05:10;;;;;;;;;;;27.20;80.10;;;;;;5104357;28;19912;-51
2022/05/03 06:07:36;;;;;;;;;;;27.10;80.20;;;;;;5113036;28;19919;-44
2022/05/03 06:10:04;;;;;;;;;;;27.10;80.00;;;;;;5124742;28;20104;-43
2022/05/03 06:12:31;;;;;;;;;;;27.10;80.20;;;;;;5125084;28;19935;-42
2022/05/03 06:14:57;;;;;;;;;;;27.10;79.80;;;;;;5124813;28;19966;-43
2022/05/03 06:17:23;;;;;;;;;;;27.10;80.30;;;;;;5122473;28;19916;-42
2022/05/03 06:19:49;;;;;;;;;;;27.10;80.10;;;;;;5118239;28;19912;-48
2022/05/03 06:22:16;;;;;;;;;;;27.10;79.90;;;;;;5110857;28;19946;-42
2022/05/03 06:24:45;;;;;;;;;;;27.10;79.60;;;;;;5124676;28;19908;-42
2022/05/03 06:27:12;;;;;;;;;;;27.10;79.80;;;;;;5125018;28;19904;-42
2022/05/03 06:29:38;;;;;;;;;;;27.00;79.90;;;;;;5124602;28;20142;-43
2022/05/03 06:32:04;;;;;;;;;;;27.00;79.80;;;;;;5125001;28;19907;-45
2022/05/03 06:34:31;;;;;;;;;;;27.00;79.70;;;;;;5116901;28;19960;-49
2022/05/03 06:36:57;;;;;;;;;;;27.00;80.30;;;;;;5120204;28;20439;-45
2022/05/03 06:39:23;;;;;;;;;;;27.00;79.90;;;;;;5116181;28;19908;-43
2022/05/03 06:41:49;;;;;;;;;;;27.00;80.20;;;;;;5124913;28;19907;-45
2022/05/03 06:44:16;;;;;;;;;;;27.00;80.20;;;;;;5108669;28;19958;-45
2022/05/03 06:46:42;;;;;;;;;;;27.00;80.20;;;;;;5105704;28;19908;-46
2022/05/03 06:49:10;;;;;;;;;;;27.00;80.20;;;;;;5108214;28;19912;-42
2022/05/03 06:51:37;;;;;;;;;;;27.00;79.90;;;;;;5108015;28;19908;-43
2022/05/03 06:54:03;;;;;;;;;;;27.00;80.20;;;;;;5107858;28;19975;-45
2022/05/03 06:56:35;;;;;;;;;;;26.90;80.60;;;;;;5121038;28;20087;-41
2022/05/03 06:59:03;;;;;;;;;;;26.90;80.70;;;;;;5128151;28;19912;-42
2022/05/03 07:01:29;;;;;;;;;;;26.90;80.40;;;;;;5123750;28;19961;-50
2022/05/03 07:03:55;;;;;;;;;;;26.90;80.50;;;;;;5128279;28;20103;-43
2022/05/03 07:06:21;;;;;;;;;;;26.90;80.20;;;;;;5128120;28;19908;-44
2022/05/03 07:08:48;;;;;;;;;;;26.90;80.10;;;;;;5128245;28;20199;-42
2022/05/03 07:11:15;;;;;;;;;;;26.90;80.20;;;;;;5128182;28;20172;-44
2022/05/03 07:13:42;;;;;;;;;;;26.90;80.40;;;;;;5127924;28;20116;-43
2022/05/03 07:16:09;;;;;;;;;;;26.90;79.70;;;;;;5128329;28;19904;-42
2022/05/03 07:24:04;;;;;;;;;;;26.80;80.30;;;;;;5112973;28;20104;-51
2022/05/03 07:26:30;;;;;;;;;;;26.80;80.60;;;;;;5107570;28;19963;-43
2022/05/03 07:28:57;;;;;;;;;;;26.80;80.60;;;;;;5107574;28;19980;-42
2022/05/03 07:31:23;;;;;;;;;;;26.70;80.50;;;;;;5107490;28;19904;-42
2022/05/03 07:33:49;;;;;;;;;;;26.70;80.40;;;;;;5107337;28;19916;-43
2022/05/03 07:36:18;;;;;;;;;;;26.70;80.50;;;;;;5107189;28;20065;-44
2022/05/03 07:38:45;;;;;;;;;;;26.70;80.60;;;;;;5107662;28;19979;-44
2022/05/03 07:41:12;;;;;;;;;;;26.70;80.50;;;;;;5106989;28;19943;-52
2022/05/03 07:43:39;;;;;;;;;;;26.70;80.50;;;;;;5106918;28;20186;-44
2022/05/03 07:46:05;;;;;;;;;;;26.70;80.70;;;;;;5107028;28;19904;-42
2022/05/03 07:48:31;;;;;;;;;;;26.70;80.50;;;;;;5106872;28;19992;-44
2022/05/03 07:50:57;;;;;;;;;;;26.70;80.10;;;;;;5106788;28;19911;-42
2022/05/03 07:53:23;;;;;;;;;;;26.70;80.30;;;;;;5106989;28;19920;-43
2022/05/03 07:55:50;;;;;;;;;;;26.70;80.00;;;;;;5106626;28;19947;-43
2022/05/03 07:58:18;;;;;;;;;;;26.70;79.90;;;;;;5106270;28;19913;-42
2022/05/03 08:00:45;;;;;;;;;;;26.60;79.60;;;;;;5106786;28;19905;-42
2022/05/03 08:03:13;;;;;;;;;;;26.70;79.60;;;;;;5107014;28;19908;-45
2022/05/03 08:05:39;;;;;;;;;;;26.70;80.00;;;;;;5106616;28;19949;-42
2022/05/03 08:08:05;;;;;;;;;;;26.70;79.70;;;;;;5106637;28;19912;-45
2022/05/03 08:10:32;;;;;;;;;;;26.60;79.70;;;;;;5106298;28;19919;-43
2022/05/03 08:12:58;;;;;;;;;;;26.60;79.70;;;;;;5106898;28;19952;-45
2022/05/03 08:15:24;;;;;;;;;;;26.60;79.70;;;;;;5106438;28;20184;-45
2022/05/03 08:17:50;;;;;;;;;;;26.60;79.70;;;;;;5106690;28;19908;-46
2022/05/03 08:20:17;;;;;;;;;;;26.60;79.60;;;;;;5106367;28;19912;-42
2022/05/03 08:22:43;;;;;;;;;;;26.60;79.40;;;;;;5106291;28;19904;-42
2022/05/03 08:25:10;;;;;;;;;;;26.60;79.00;;;;;;5106077;28;19947;-44
2022/05/03 08:27:38;;;;;;;;;;;26.60;79.10;;;;;;5106529;28;19916;-43
2022/05/03 08:30:08;;;;;;;;;;;26.60;79.20;;;;;;5106156;28;19908;-47
2022/05/03 08:32:34;;;;;;;;;;;26.50;79.20;;;;;;5106306;28;20149;-43
2022/05/03 08:35:01;;;;;;;;;;;26.50;79.10;;;;;;5105963;28;20219;-44
2022/05/03 08:42:56;;;;;;;;;;;26.40;79.90;;;;;;5106400;28;19914;-41
2022/05/03 08:45:24;;;;;;;;;;;26.40;80.30;;;;;;5105839;28;19935;-41
2022/05/03 08:47:51;;;;;;;;;;;26.40;80.10;;;;;;5106231;28;20118;-44
2022/05/03 08:50:22;;;;;;;;;;;26.40;80.20;;;;;;5105749;28;19948;-43
2022/05/03 08:52:55;;;;;;;;;;;26.40;80.00;;;;;;5105349;28;19916;-43
2022/05/03 08:55:22;;;;;;;;;;;26.40;79.90;;;;;;5105560;28;20073;-49
2022/05/03 08:57:48;;;;;;;;;;;26.40;80.10;;;;;;5105923;28;19987;-43
2022/05/03 09:00:15;;;;;;;;;;;26.40;79.70;;;;;;5105561;28;19912;-47
2022/05/03 09:02:46;;;;;;;;;;;26.40;80.00;;;;;;5106091;28;20233;-44
2022/05/03 09:05:12;;;;;;;;;;;26.40;79.40;;;;;;5105303;28;19912;-43
2022/05/03 09:07:44;;;;;;;;;;;26.40;79.60;;;;;;5105760;28;19936;-43
2022/05/03 09:10:15;;;;;;;;;;;26.40;79.70;;;;;;5104551;28;19936;-50
2022/05/03 09:12:44;;;;;;;;;;;26.40;79.70;;;;;;5105476;28;19982;-54
2022/05/03 09:15:11;;;;;;;;;;;26.40;79.90;;;;;;5105233;28;19908;-47
2022/05/03 09:17:39;;;;;;;;;;;26.40;79.80;;;;;;5105677;28;19910;-44
2022/05/03 09:25:48;;;;;;;;;;;26.30;80.00;;;;;;5105259;28;20141;-45
2022/05/03 09:28:15;;;;;;;;;;;26.30;79.90;;;;;;5105504;28;19927;-54
2022/05/03 09:30:51;;;;;;;;;;;26.30;80.00;;;;;;5104893;28;19916;-52
2022/05/03 09:33:18;;;;;;;;;;;26.30;80.30;;;;;;5104857;28;19969;-42
2022/05/03 09:35:45;;;;;;;;;;;26.30;80.30;;;;;;5104668;28;20103;-45
2022/05/03 09:38:11;;;;;;;;;;;26.30;80.40;;;;;;5105690;28;19979;-48
2022/05/03 09:40:42;;;;;;;;;;;26.30;80.30;;;;;;5105100;28;19979;-44
2022/05/03 09:43:11;;;;;;;;;;;26.30;80.10;;;;;;5105229;28;19912;-45
2022/05/03 09:45:37;;;;;;;;;;;26.30;80.50;;;;;;5104973;28;20248;-44
2022/05/03 09:48:05;;;;;;;;;;;26.30;80.20;;;;;;5105243;28;19908;-43
2022/05/03 09:50:31;;;;;;;;;;;26.30;80.50;;;;;;5104677;28;20085;-46
2022/05/03 09:52:59;;;;;;;;;;;26.30;80.40;;;;;;5104775;28;19916;-50
2022/05/03 09:55:33;;;;;;;;;;;26.30;80.30;;;;;;5104726;28;19920;-55
2022/05/03 09:58:00;;;;;;;;;;;26.30;80.30;;;;;;5104827;28;19916;-47
2022/05/03 10:00:27;;;;;;;;;;;26.30;80.60;;;;;;5104722;28;19919;-44
2022/05/03 10:02:53;;;;;;;;;;;26.30;80.90;;;;;;5104908;28;20085;-42
2022/05/03 10:05:21;;;;;;;;;;;26.30;80.90;;;;;;5104393;28;19912;-42
2022/05/03 10:07:48;;;;;;;;;;;26.30;81.30;;;;;;5105016;28;19975;-46
2022/05/03 10:10:16;;;;;;;;;;;26.20;81.30;;;;;;5104565;28;19968;-47
2022/05/03 10:12:42;;;;;;;;;;;26.20;81.80;;;;;;5104525;28;19915;-46
2022/05/03 10:15:09;;;;;;;;;;;26.20;81.70;;;;;;5104543;28;19916;-46
2022/05/03 10:20:40;;;;;;;;;;;26.20;82.10;;;;;;5104469;28;19919;-48
2022/05/03 10:23:19;;;;;;;;;;;26.20;81.80;;;;;;5108720;28;19930;-46
2022/05/03 10:25:45;;;;;;;;;;;26.10;82.20;;;;;;5108648;28;19934;-46
2022/05/03 10:28:11;;;;;;;;;;;26.10;82.30;;;;;;5109014;28;19908;-46
2022/05/03 10:30:40;;;;;;;;;;;26.10;82.40;;;;;;5108281;28;19944;-42
2022/05/03 10:33:25;;;;;;;;;;;26.20;82.60;;;;;;5108879;28;19912;-49
2022/05/03 10:35:51;;;;;;;;;;;26.20;82.40;;;;;;5108081;28;19912;-44
2022/05/03 10:38:37;;;;;;;;;;;26.20;82.80;;;;;;5108150;28;19912;-50
2022/05/03 10:41:11;;;;;;;;;;;26.10;82.60;;;;;;5108393;28;20096;-42
2022/05/03 10:43:38;;;;;;;;;;;26.10;82.50;;;;;;5108221;28;20089;-45
2022/05/03 10:46:14;;;;;;;;;;;26.20;82.40;;;;;;5108430;28;20184;-44
2022/05/03 10:48:41;;;;;;;;;;;26.20;82.40;;;;;;5108345;28;19992;-47
2022/05/03 10:51:08;;;;;;;;;;;26.20;82.30;;;;;;5108009;28;19908;-45
2022/05/03 10:53:36;;;;;;;;;;;26.20;82.20;;;;;;5107709;28;19928;-42
2022/05/03 10:56:06;;;;;;;;;;;26.30;82.40;;;;;;5107952;28;19908;-43
2022/05/03 10:58:34;;;;;;;;;;;26.30;82.50;;;;;;5108127;28;20160;-46
2022/05/03 11:01:01;;;;;;;;;;;26.30;82.40;;;;;;5107697;28;19943;-49
2022/05/03 11:03:27;;;;;;;;;;;26.30;82.40;;;;;;5108122;28;20192;-43
2022/05/03 11:06:11;;;;;;;;;;;26.30;82.50;;;;;;5107730;28;19914;-43
2022/05/03 11:09:18;;;;;;;;;;;26.30;82.60;;;;;;5107887;28;20216;-44
2022/05/03 11:11:44;;;;;;;;;;;26.40;82.40;;;;;;5107072;28;20069;-44
2022/05/03 11:14:17;;;;;;;;;;;26.40;82.50;;;;;;5107433;28;19916;-45
2022/05/03 11:16:45;;;;;;;;;;;26.40;82.60;;;;;;5107534;28;19908;-52
2022/05/03 11:19:22;;;;;;;;;;;26.50;82.80;;;;;;5107745;28;19919;-50
2022/05/03 11:21:49;;;;;;;;;;;26.50;82.80;;;;;;5117192;28;19925;-48
2022/05/03 11:24:20;;;;;;;;;;;26.60;82.80;;;;;;5123789;28;19919;-42
2022/05/03 11:26:47;;;;;;;;;;;26.70;82.70;;;;;;5128085;28;19915;-46
2022/05/03 11:29:13;;;;;;;;;;;26.80;82.60;;;;;;5127732;28;19914;-45
2022/05/03 11:31:45;;;;;;;;;;;27.00;82.60;;;;;;5127665;28;19908;-42
2022/05/03 11:34:11;;;;;;;;;;;27.20;81.80;;;;;;5126554;28;19920;-46
2022/05/03 11:36:38;;;;;;;;;;;27.70;80.50;;;;;;5127814;28;19939;-44
2022/05/03 11:39:04;;;;;;;;;;;28.10;79.20;;;;;;5127382;28;19912;-51
2022/05/03 11:41:30;;;;;;;;;;;28.50;78.10;;;;;;5127553;28;20128;-41
2022/05/03 11:43:56;;;;;;;;;;;28.50;77.60;;;;;;5127414;28;19929;-41
2022/05/03 11:46:23;;;;;;;;;;;28.70;77.90;;;;;;5127185;28;19908;-45
2022/05/03 11:48:54;;;;;;;;;;;29.00;77.10;;;;;;5127330;28;19912;-45
2022/05/03 11:57:05;;;;;;;;;;;31.40;71.70;;;;;;5126650;28;19915;-44
2022/05/03 11:59:31;;;;;;;;;;;32.20;69.30;;;;;;5126944;28;19939;-49
2022/05/03 12:02:17;;;;;;;;;;;32.60;68.40;;;;;;5127247;28;19908;-48
2022/05/03 12:05:02;;;;;;;;;;;32.50;68.10;;;;;;5126612;28;19987;-44
2022/05/03 12:07:29;;;;;;;;;;;32.40;69.30;;;;;;5125688;28;19907;-46
2022/05/03 12:09:55;;;;;;;;;;;32.80;68.40;;;;;;5123571;28;19946;-43
2022/05/03 12:15:14;;;;;;;;;;;33.60;66.50;;;;;;5125325;28;19953;-43
2022/05/03 12:17:53;;;;;;;;;;;33.10;66.60;;;;;;5125599;28;19949;-47
2022/05/03 12:20:19;;;;;;;;;;;32.10;69.40;;;;;;5125776;28;19908;-51
2022/05/03 12:22:45;;;;;;;;;;;31.10;72.10;;;;;;5127191;28;20091;-44
2022/05/03 12:25:26;;;;;;;;;;;30.40;74.40;;;;;;5125415;28;19907;-52
2022/05/03 12:27:52;;;;;;;;;;;29.90;75.90;;;;;;5118978;28;20229;-46
2022/05/03 12:30:18;;;;;;;;;;;29.60;76.90;;;;;;5126606;28;19911;-44
2022/05/03 12:32:47;;;;;;;;;;;29.40;77.80;;;;;;5126840;28;19907;-51
2022/05/03 12:35:14;;;;;;;;;;;29.30;78.40;;;;;;5126551;28;19911;-50
2022/05/03 12:37:51;;;;;;;;;;;29.10;78.90;;;;;;5126963;28;19908;-53
2022/05/03 12:40:25;;;;;;;;;;;29.00;79.40;;;;;;5126400;28;19956;-55
2022/05/03 12:42:51;;;;;;;;;;;28.90;79.80;;;;;;5126740;28;20091;-52
2022/05/03 12:45:19;;;;;;;;;;;28.90;80.00;;;;;;5126214;28;19912;-43
2022/05/03 12:47:49;;;;;;;;;;;28.90;80.20;;;;;;5126563;28;19916;-45
2022/05/03 12:50:15;;;;;;;;;;;28.90;79.60;;;;;;5124516;28;19933;-45
2022/05/03 12:52:41;;;;;;;;;;;28.90;79.60;;;;;;5125991;28;19958;-49
2022/05/03 12:55:08;;;;;;;;;;;28.90;79.50;;;;;;5115902;28;20184;-47
2022/05/03 13:00:19;;;;;;;;;;;28.90;78.50;;;;;;5126057;28;19964;-46
2022/05/03 13:02:45;;;;;;;;;;;29.00;78.80;;;;;;5126490;28;19908;-46
2022/05/03 13:05:11;;;;;;;;;;;29.00;78.50;;;;;;5125766;28;20148;-43
2022/05/03 13:07:37;;;;;;;;;;;28.90;78.30;;;;;;5126304;28;19910;-44
2022/05/03 13:10:04;;;;;;;;;;;29.00;78.30;;;;;;5126083;28;19954;-44
2022/05/03 13:12:30;;;;;;;;;;;29.00;78.60;;;;;;5124552;28;20129;-42
2022/05/03 13:14:56;;;;;;;;;;;28.90;78.40;;;;;;5114207;28;20103;-46
2022/05/03 13:17:23;;;;;;;;;;;28.90;78.70;;;;;;5126198;28;19949;-42
2022/05/03 13:19:49;;;;;;;;;;;29.00;79.00;;;;;;5125632;28;20222;-44
2022/05/03 13:22:16;;;;;;;;;;;28.90;78.70;;;;;;5125594;28;19961;-42
2022/05/03 13:24:42;;;;;;;;;;;29.00;78.90;;;;;;5125578;28;19912;-45
2022/05/03 13:27:08;;;;;;;;;;;28.90;78.80;;;;;;5125787;28;19907;-44
2022/05/03 13:29:34;;;;;;;;;;;29.00;79.20;;;;;;5123661;28;19908;-48
2022/05/03 13:32:02;;;;;;;;;;;29.00;79.20;;;;;;5116776;28;19912;-44
2022/05/03 13:34:28;;;;;;;;;;;29.00;79.50;;;;;;5122219;28;19954;-42
2022/05/03 13:42:23;;;;;;;;;;;29.00;79.80;;;;;;5125711;28;19930;-44
2022/05/03 13:44:49;;;;;;;;;;;29.00;79.60;;;;;;5125285;28;19934;-43
2022/05/03 13:47:15;;;;;;;;;;;29.00;79.70;;;;;;5125408;28;19950;-45
2022/05/03 13:49:42;;;;;;;;;;;29.00;79.20;;;;;;5125351;28;19908;-46
2022/05/03 13:52:09;;;;;;;;;;;29.10;79.30;;;;;;5125060;28;20214;-44
2022/05/03 13:54:35;;;;;;;;;;;29.10;78.80;;;;;;5124750;28;19916;-48
2022/05/03 13:57:01;;;;;;;;;;;29.10;78.80;;;;;;5124768;28;19903;-44
2022/05/03 13:59:27;;;;;;;;;;;29.10;78.60;;;;;;5124948;28;20219;-51
2022/05/03 14:01:54;;;;;;;;;;;29.10;78.70;;;;;;5125204;28;19908;-55
2022/05/03 14:04:20;;;;;;;;;;;29.10;78.70;;;;;;5124869;28;19983;-47
2022/05/03 14:06:46;;;;;;;;;;;29.20;78.70;;;;;;5125027;28;19939;-46
2022/05/03 14:09:12;;;;;;;;;;;29.20;78.80;;;;;;5124913;28;19912;-44
2022/05/03 14:11:38;;;;;;;;;;;29.30;79.00;;;;;;5124998;28;20254;-45
2022/05/03 14:14:05;;;;;;;;;;;29.30;80.00;;;;;;5124763;28;19990;-47
2022/05/03 14:16:31;;;;;;;;;;;29.30;79.70;;;;;;5123280;28;20230;-42
2022/05/03 14:19:00;;;;;;;;;;;29.30;79.60;;;;;;5124610;28;19915;-47
2022/05/03 14:21:27;;;;;;;;;;;29.30;79.70;;;;;;5125024;28;19908;-43
2022/05/03 14:23:53;;;;;;;;;;;29.30;79.70;;;;;;5124849;28;20245;-44
2022/05/03 14:26:20;;;;;;;;;;;29.40;79.90;;;;;;5124486;28;19904;-43
2022/05/03 14:28:48;;;;;;;;;;;29.40;79.40;;;;;;5124814;28;19969;-41
2022/05/03 14:31:14;;;;;;;;;;;29.40;79.30;;;;;;5122743;28;19908;-40
2022/05/03 14:33:41;;;;;;;;;;;29.40;79.30;;;;;;5124665;28;19916;-44
2022/05/03 14:36:07;;;;;;;;;;;29.40;79.40;;;;;;5124656;28;20142;-41
2022/05/03 14:38:33;;;;;;;;;;;29.40;79.40;;;;;;5124702;28;20195;-41
2022/05/03 14:40:59;;;;;;;;;;;29.50;78.40;;;;;;5124469;28;19966;-44
2022/05/03 14:43:25;;;;;;;;;;;29.50;78.20;;;;;;5124560;28;20034;-45
2022/05/03 14:45:51;;;;;;;;;;;29.50;78.10;;;;;;5124515;28;19907;-47
2022/05/03 14:48:17;;;;;;;;;;;29.50;78.00;;;;;;5124485;28;19911;-45
2022/05/03 14:50:44;;;;;;;;;;;29.60;77.60;;;;;;5124500;28;20096;-50
2022/05/03 14:53:10;;;;;;;;;;;29.50;77.80;;;;;;5124452;28;19916;-50
2022/05/03 14:55:37;;;;;;;;;;;29.50;77.70;;;;;;5124312;28;20100;-49
2022/05/03 15:03:43;;;;;;;;;;;29.70;76.60;;;;;;5051748;28;19920;-44
2022/05/03 15:06:09;;;;;;;;;;;29.70;76.20;;;;;;5124048;28;19903;-53
2022/05/03 15:08:35;;;;;;;;;;;29.70;75.90;;;;;;5127309;28;19919;-44
2022/05/03 15:11:01;;;;;;;;;;;29.70;75.90;;;;;;5125029;28;20149;-42
2022/05/03 15:13:27;;;;;;;;;;;29.70;75.20;;;;;;5127956;28;19916;-41
2022/05/03 15:15:54;;;;;;;;;;;29.70;74.80;;;;;;5118689;28;19907;-46
2022/05/03 15:18:20;;;;;;;;;;;29.80;74.50;;;;;;5128042;28;19918;-42